createdAt,value
2019-01-04T00:01:59.493Z,14.63
2019-01-04T00:04:31.025Z,15.63
2019-01-04T00:07:02.416Z,14.87
2019-01-04T00:09:33.646Z,14.37
2019-01-04T00:12:04.942Z,14.80
2019-01-04T00:14:36.171Z,14.87
2019-01-04T00:17:07.445Z,14.67
2019-01-04T00:19:38.618Z,13.87
2019-01-04T00:22:11.950Z,14.13
2019-01-04T00:24:43.127Z,14.80
2019-01-04T00:27:14.325Z,16.07
2019-01-04T00:29:45.593Z,14.37
2019-01-04T00:32:16.795Z,14.27
2019-01-04T00:34:48.320Z,14.93
2019-01-04T00:37:19.636Z,15.30
2019-01-04T00:39:50.856Z,15.83
2019-01-04T00:42:22.085Z,15.67
2019-01-04T00:44:53.327Z,15.00
2019-01-04T00:47:24.573Z,15.37
2019-01-04T00:49:55.803Z,14.97
2019-01-04T00:52:26.997Z,15.57
2019-01-04T00:55:01.295Z,15.87
2019-01-04T00:57:55.068Z,15.30
2019-01-04T01:01:19.112Z,14.77
2019-01-04T01:04:34.617Z,15.27
2019-01-04T01:07:22.571Z,14.90
2019-01-04T01:10:27.816Z,15.23
2019-01-04T01:13:30.109Z,14.60
2019-01-04T01:16:53.510Z,15.23
2019-01-04T01:20:05.750Z,15.20
2019-01-04T01:23:17.787Z,14.90
2019-01-04T01:26:29.468Z,15.67
2019-01-04T01:29:58.871Z,15.70
2019-01-04T01:33:04.879Z,15.60
2019-01-04T01:36:10.799Z,16.77
2019-01-04T01:39:18.149Z,17.63
2019-01-04T01:42:20.439Z,16.10
2019-01-04T01:45:40.895Z,16.40
2019-01-04T01:48:34.255Z,15.60
2019-01-04T01:51:29.760Z,17.40
2019-01-04T01:54:00.951Z,14.30
2019-01-04T01:56:32.149Z,17.70
2019-01-04T01:59:03.390Z,16.83
2019-01-04T02:01:34.629Z,15.43
2019-01-04T02:04:05.879Z,14.57
2019-01-04T02:06:37.068Z,16.73
2019-01-04T02:09:10.310Z,18.10
2019-01-04T02:11:41.506Z,16.23
2019-01-04T02:14:12.748Z,14.33
2019-01-04T02:16:44.048Z,15.87
2019-01-04T02:19:15.268Z,14.00
2019-01-04T02:21:46.498Z,14.90
2019-01-04T02:24:17.730Z,14.27
2019-01-04T02:26:48.948Z,15.50
2019-01-04T02:29:20.150Z,16.37
2019-01-04T02:31:51.359Z,13.23
2019-01-04T02:34:22.549Z,16.33
2019-01-04T02:36:53.677Z,14.37
2019-01-04T02:39:24.914Z,16.43
2019-01-04T02:41:56.109Z,15.83
2019-01-04T02:44:27.299Z,16.10
2019-01-04T02:46:58.523Z,13.33
2019-01-04T02:49:29.804Z,15.73
2019-01-04T02:52:01.016Z,14.87
2019-01-04T02:54:32.246Z,16.07
2019-01-04T02:57:03.494Z,15.90
2019-01-04T02:59:34.684Z,15.33
2019-01-04T03:02:07.669Z,15.73
2019-01-04T03:04:38.883Z,16.43
2019-01-04T03:07:10.027Z,15.73
2019-01-04T03:09:41.366Z,15.30
2019-01-04T03:12:12.497Z,14.20
2019-01-04T03:14:43.729Z,13.87
2019-01-04T03:17:14.860Z,14.20
2019-01-04T03:19:46.097Z,15.37
2019-01-04T03:22:17.274Z,14.50
2019-01-04T03:24:48.448Z,14.33
2019-01-04T03:27:19.706Z,13.60
2019-01-04T03:29:51.076Z,14.10
2019-01-04T03:32:22.308Z,14.70
2019-01-04T03:34:53.510Z,15.67
2019-01-04T03:37:24.715Z,14.87
2019-01-04T03:39:55.941Z,14.17
2019-01-04T03:42:27.118Z,14.40
2019-01-04T03:44:58.301Z,14.00
2019-01-04T03:47:29.502Z,14.20
2019-01-04T03:50:00.932Z,15.03
2019-01-04T03:52:32.113Z,14.87
2019-01-04T03:55:03.319Z,14.87
2019-01-04T03:57:34.572Z,12.97
2019-01-04T04:00:06.623Z,14.13
2019-01-04T04:02:37.860Z,15.70
2019-01-04T04:05:09.107Z,13.13
2019-01-04T04:07:40.316Z,13.70
2019-01-04T04:10:11.498Z,14.30
2019-01-04T04:12:42.739Z,14.20
2019-01-04T04:15:13.991Z,14.17
2019-01-04T04:17:45.143Z,13.97
2019-01-04T04:20:16.327Z,14.17
2019-01-04T04:22:47.484Z,14.57
2019-01-04T04:25:18.682Z,15.07
2019-01-04T04:27:49.885Z,14.03
2019-01-04T04:30:21.082Z,14.00
2019-01-04T04:32:52.294Z,14.20
2019-01-04T04:35:23.551Z,13.80
2019-01-04T04:37:54.740Z,13.30
2019-01-04T04:40:25.918Z,13.27
2019-01-04T04:42:57.164Z,13.50
2019-01-04T04:45:28.369Z,13.50
2019-01-04T04:47:59.606Z,15.03
2019-01-04T04:50:30.845Z,12.90
2019-01-04T04:53:02.185Z,11.97
2019-01-04T04:55:33.434Z,12.47
2019-01-04T04:58:04.677Z,14.10
2019-01-04T05:00:35.902Z,13.50
2019-01-04T05:03:07.157Z,14.57
2019-01-04T05:05:38.334Z,13.07
2019-01-04T05:08:09.557Z,13.83
2019-01-04T05:10:40.678Z,14.37
2019-01-04T05:13:11.925Z,13.70
2019-01-04T05:15:43.101Z,14.77
2019-01-04T05:18:14.323Z,15.70
2019-01-04T05:20:45.500Z,14.60
2019-01-04T05:23:16.735Z,13.70
2019-01-04T05:25:47.930Z,13.33
2019-01-04T05:28:19.192Z,14.47
2019-01-04T05:30:50.417Z,13.77
2019-01-04T05:33:21.694Z,14.20
2019-01-04T05:35:52.911Z,13.80
2019-01-04T05:38:24.195Z,14.23
2019-01-04T05:40:55.396Z,15.07
2019-01-04T05:43:26.659Z,14.13
2019-01-04T05:45:57.954Z,14.87
2019-01-04T05:48:29.227Z,14.80
2019-01-04T05:51:00.511Z,15.40
2019-01-04T05:53:31.686Z,14.77
2019-01-04T05:56:02.863Z,16.40
2019-01-04T05:58:34.062Z,15.57
2019-01-04T06:01:05.226Z,15.67
2019-01-04T06:03:36.489Z,16.13
2019-01-04T06:06:07.678Z,16.37
2019-01-04T06:08:38.922Z,15.70
2019-01-04T06:11:11.253Z,14.03
2019-01-04T06:13:42.459Z,15.63
2019-01-04T06:16:13.677Z,15.77
2019-01-04T06:18:45.053Z,16.53
2019-01-04T06:21:16.292Z,15.03
2019-01-04T06:23:47.469Z,15.00
2019-01-04T06:26:18.711Z,16.83
2019-01-04T06:28:49.941Z,15.23
2019-01-04T06:31:21.175Z,15.17
2019-01-04T06:33:52.400Z,15.13
2019-01-04T06:36:23.689Z,13.80
2019-01-04T06:38:54.923Z,15.13
2019-01-04T06:41:26.184Z,13.60
2019-01-04T06:43:57.358Z,16.17
2019-01-04T06:46:28.597Z,13.87
2019-01-04T06:48:59.782Z,13.90
2019-01-04T06:51:31.000Z,12.67
2019-01-04T06:54:02.217Z,13.80
2019-01-04T06:56:33.393Z,15.33
2019-01-04T06:59:04.602Z,14.63
2019-01-04T07:01:36.174Z,17.20
2019-01-04T07:04:07.359Z,15.37
2019-01-04T07:06:38.530Z,14.43
2019-01-04T07:09:09.725Z,13.93
2019-01-04T07:11:40.989Z,13.70
2019-01-04T07:14:12.234Z,13.40
2019-01-04T07:16:43.497Z,14.13
2019-01-04T07:19:14.727Z,14.53
2019-01-04T07:21:46.010Z,15.53
2019-01-04T07:24:17.231Z,13.17
2019-01-04T07:26:48.480Z,12.83
2019-01-04T07:29:19.671Z,12.57
2019-01-04T07:31:50.901Z,13.27
2019-01-04T07:34:22.068Z,11.03
2019-01-04T07:36:53.289Z,13.90
2019-01-04T07:39:24.473Z,13.33
2019-01-04T07:41:55.673Z,11.83
2019-01-04T07:44:26.920Z,12.93
2019-01-04T07:46:58.145Z,11.20
2019-01-04T07:49:29.423Z,12.37
2019-01-04T07:52:00.598Z,12.87
2019-01-04T07:54:32.175Z,13.13
2019-01-04T07:57:03.405Z,13.23
2019-01-04T07:59:34.620Z,12.63
2019-01-04T08:02:33.813Z,12.47
2019-01-04T08:05:06.748Z,11.17
2019-01-04T08:07:38.018Z,12.07
2019-01-04T08:10:09.336Z,11.30
2019-01-04T08:12:40.733Z,10.97
2019-01-04T08:15:11.927Z,11.03
2019-01-04T08:17:43.164Z,11.07
2019-01-04T08:20:14.436Z,11.97
2019-01-04T08:22:45.786Z,11.63
2019-01-04T08:25:16.966Z,11.30
2019-01-04T08:27:48.188Z,9.90
2019-01-04T08:30:20.441Z,9.17
2019-01-04T08:32:51.829Z,6.53
2019-01-04T08:35:23.172Z,8.57
2019-01-04T08:37:54.336Z,8.53
2019-01-04T08:40:25.608Z,8.27
2019-01-04T08:42:56.814Z,7.73
2019-01-04T08:45:28.027Z,8.27
2019-01-04T08:47:59.296Z,8.80
2019-01-04T08:50:30.925Z,8.37
2019-01-04T08:53:02.166Z,7.70
2019-01-04T08:55:33.476Z,8.53
2019-01-04T08:58:04.651Z,9.30
2019-01-04T09:00:35.978Z,9.90
2019-01-04T09:03:07.202Z,10.87
2019-01-04T09:05:38.410Z,6.27
2019-01-04T09:08:09.653Z,11.50
2019-01-04T09:10:40.902Z,10.83
2019-01-04T09:13:12.173Z,11.33
2019-01-04T09:15:43.378Z,11.80
2019-01-04T09:18:14.690Z,12.13
2019-01-04T09:20:45.984Z,11.97
2019-01-04T09:23:17.469Z,10.73
2019-01-04T09:25:48.750Z,11.03
2019-01-04T09:28:20.095Z,10.93
2019-01-04T09:30:51.281Z,10.03
2019-01-04T09:33:22.483Z,11.53
2019-01-04T09:35:53.999Z,11.30
2019-01-04T09:38:25.210Z,10.67
2019-01-04T09:41:21.250Z,11.00
2019-01-04T09:43:52.426Z,10.77
2019-01-04T09:46:23.606Z,11.93
2019-01-04T09:48:54.881Z,11.97
2019-01-04T09:51:26.166Z,10.37
2019-01-04T09:53:57.566Z,9.50
2019-01-04T09:56:28.940Z,10.60
2019-01-04T09:59:00.179Z,13.10
2019-01-04T10:01:31.554Z,11.47
2019-01-04T10:04:02.817Z,11.97
2019-01-04T10:06:34.124Z,11.47
2019-01-04T10:09:06.846Z,11.63
2019-01-04T10:11:38.061Z,11.53
2019-01-04T10:14:09.299Z,9.83
2019-01-04T10:16:40.472Z,10.80
2019-01-04T10:19:11.630Z,8.00
2019-01-04T10:21:42.810Z,9.93
2019-01-04T10:24:14.004Z,12.00
2019-01-04T10:26:45.189Z,10.10
2019-01-04T10:29:16.448Z,10.47
2019-01-04T10:31:47.690Z,11.07
2019-01-04T10:34:18.895Z,10.80
2019-01-04T10:36:50.139Z,9.67
2019-01-04T10:39:21.352Z,9.60
2019-01-04T10:41:52.791Z,7.87
2019-01-04T10:44:23.979Z,8.37
2019-01-04T10:46:55.166Z,8.20
2019-01-04T10:49:26.352Z,6.83
2019-01-04T10:51:57.553Z,8.93
2019-01-04T10:54:28.715Z,8.47
2019-01-04T10:57:00.106Z,8.07
2019-01-04T10:59:31.353Z,8.23
2019-01-04T11:02:02.582Z,8.17
2019-01-04T11:04:33.906Z,8.20
2019-01-04T11:07:05.097Z,7.97
2019-01-04T11:09:36.302Z,7.83
2019-01-04T11:12:07.620Z,7.10
2019-01-04T11:14:38.812Z,7.20
2019-01-04T11:17:10.062Z,7.80
2019-01-04T11:19:41.249Z,8.17
2019-01-04T11:22:48.585Z,8.00
2019-01-04T11:25:57.886Z,7.97
2019-01-04T11:28:52.980Z,6.53
2019-01-04T11:31:36.816Z,8.47
2019-01-04T11:34:17.908Z,7.53
2019-01-04T11:37:18.087Z,9.13
2019-01-04T11:40:07.813Z,9.50
2019-01-04T11:43:22.667Z,8.60
2019-01-04T11:46:09.881Z,9.47
2019-01-04T11:49:20.699Z,9.33
2019-01-04T11:52:03.925Z,9.27
2019-01-04T11:54:35.216Z,9.27
2019-01-04T11:57:06.491Z,8.63
2019-01-04T11:59:37.720Z,9.07
2019-01-04T12:02:08.960Z,8.33
2019-01-04T12:04:40.212Z,8.67
2019-01-04T12:07:11.389Z,8.97
2019-01-04T12:09:42.650Z,8.23
2019-01-04T12:12:13.823Z,8.10
2019-01-04T12:14:45.180Z,8.50
2019-01-04T12:17:16.402Z,8.47
2019-01-04T12:19:47.632Z,9.00
2019-01-04T12:22:18.931Z,9.00
2019-01-04T12:24:50.145Z,8.00
2019-01-04T12:27:21.463Z,7.47
2019-01-04T12:29:52.661Z,6.17
2019-01-04T12:32:23.866Z,8.40
2019-01-04T12:34:55.093Z,7.90
2019-01-04T12:37:26.323Z,8.77
2019-01-04T12:39:57.573Z,8.83
2019-01-04T12:42:28.811Z,9.20
2019-01-04T12:45:00.132Z,8.87
2019-01-04T12:47:31.535Z,9.07
2019-01-04T12:50:02.666Z,9.27
2019-01-04T12:52:33.916Z,8.93
2019-01-04T12:55:05.619Z,8.10
2019-01-04T12:57:37.851Z,8.07
2019-01-04T13:00:11.424Z,7.83
2019-01-04T13:02:42.839Z,8.03
2019-01-04T13:05:14.097Z,7.73
2019-01-04T13:07:45.283Z,8.23
2019-01-04T13:10:16.518Z,8.00
2019-01-04T13:12:47.686Z,7.77
2019-01-04T13:15:18.871Z,7.77
2019-01-04T13:17:50.085Z,7.83
2019-01-04T13:20:21.299Z,8.13
2019-01-04T13:22:52.615Z,7.90
2019-01-04T13:25:23.824Z,7.80
2019-01-04T13:27:55.102Z,7.50
2019-01-04T13:30:27.381Z,7.87
2019-01-04T13:32:58.555Z,7.63
2019-01-04T13:35:29.752Z,6.67
2019-01-04T13:38:00.979Z,6.90
2019-01-04T13:40:32.180Z,7.30
2019-01-04T13:43:03.687Z,7.50
2019-01-04T13:45:34.995Z,7.20
2019-01-04T13:48:06.651Z,6.87
2019-01-04T13:50:38.342Z,7.77
2019-01-04T13:53:09.598Z,7.03
2019-01-04T13:55:40.891Z,7.20
2019-01-04T13:58:12.111Z,6.90
2019-01-04T14:00:43.371Z,7.00
2019-01-04T14:03:14.710Z,7.07
2019-01-04T14:05:46.063Z,8.23
2019-01-04T14:08:17.808Z,7.17
2019-01-04T14:10:49.342Z,7.57
2019-01-04T14:13:20.903Z,7.73
2019-01-04T14:15:52.615Z,7.70
2019-01-04T14:18:24.095Z,6.43
2019-01-04T14:20:55.281Z,7.63
2019-01-04T14:23:28.896Z,6.73
2019-01-04T14:25:59.601Z,6.80
2019-01-04T14:28:30.795Z,6.83
2019-01-04T14:31:01.975Z,6.97
2019-01-04T14:33:33.331Z,7.23
2019-01-04T14:36:06.954Z,7.20
2019-01-04T14:38:38.386Z,7.20
2019-01-04T14:41:09.693Z,6.93
2019-01-04T14:43:40.872Z,6.50
2019-01-04T14:46:12.059Z,7.30
2019-01-04T14:48:43.385Z,6.10
2019-01-04T14:51:14.578Z,7.10
2019-01-04T14:53:45.749Z,6.80
2019-01-04T14:56:18.584Z,6.60
2019-01-04T14:58:49.781Z,6.00
2019-01-04T15:01:20.927Z,6.27
2019-01-04T15:03:52.125Z,5.60
2019-01-04T15:06:23.443Z,6.00
2019-01-04T15:08:54.570Z,5.73
2019-01-04T15:11:25.844Z,6.20
2019-01-04T15:13:57.058Z,6.67
2019-01-04T15:16:28.217Z,5.63
2019-01-04T15:18:59.478Z,6.50
2019-01-04T15:21:30.680Z,6.53
2019-01-04T15:24:02.018Z,6.03
2019-01-04T15:26:33.195Z,6.00
2019-01-04T15:29:04.455Z,6.43
2019-01-04T15:31:35.635Z,6.07
2019-01-04T15:34:06.921Z,6.13
2019-01-04T15:36:38.322Z,5.60
2019-01-04T15:39:09.512Z,5.90
2019-01-04T15:41:40.908Z,6.60
2019-01-04T15:44:12.109Z,5.80
2019-01-04T15:46:43.400Z,5.80
2019-01-04T15:49:14.654Z,5.73
2019-01-04T15:51:45.882Z,5.57
2019-01-04T15:54:17.052Z,5.63
2019-01-04T15:56:48.299Z,6.27
2019-01-04T15:59:19.712Z,6.23
2019-01-04T16:01:50.929Z,5.77
2019-01-04T16:04:22.202Z,6.27
2019-01-04T16:06:53.491Z,5.80
2019-01-04T16:09:25.100Z,6.70
2019-01-04T16:11:57.112Z,6.10
2019-01-04T16:14:28.323Z,6.87
2019-01-04T16:16:59.836Z,6.10
2019-01-04T16:19:31.606Z,6.07
2019-01-04T16:22:03.084Z,5.93
2019-01-04T16:24:35.041Z,6.70
2019-01-04T16:27:06.492Z,6.73
2019-01-04T16:29:37.838Z,6.47
2019-01-04T16:32:09.283Z,6.30
2019-01-04T16:34:41.585Z,6.57
2019-01-04T16:37:13.392Z,6.60
2019-01-04T16:39:45.062Z,7.03
2019-01-04T16:42:17.890Z,6.50
2019-01-04T16:44:49.617Z,7.17
2019-01-04T16:47:21.214Z,6.77
2019-01-04T16:49:52.648Z,6.43
2019-01-04T16:52:24.351Z,6.37
2019-01-04T16:54:55.552Z,6.77
2019-01-04T16:57:26.768Z,6.43
2019-01-04T16:59:57.911Z,7.03
2019-01-04T17:02:29.154Z,6.80
2019-01-04T17:05:00.516Z,6.93
2019-01-04T17:07:31.756Z,6.60
2019-01-04T17:10:03.119Z,7.07
2019-01-04T17:12:34.326Z,7.73
2019-01-04T17:15:06.036Z,6.33
2019-01-04T17:17:37.329Z,6.47
2019-01-04T17:20:08.912Z,7.40
2019-01-04T17:22:40.148Z,6.77
2019-01-04T17:25:12.370Z,7.70
2019-01-04T17:27:43.849Z,7.13
2019-01-04T17:30:15.237Z,7.10
2019-01-04T17:32:46.497Z,7.67
2019-01-04T17:35:17.726Z,7.33
2019-01-04T17:37:49.126Z,7.03
2019-01-04T17:40:20.497Z,6.70
2019-01-04T17:42:51.745Z,7.20
2019-01-04T17:45:23.321Z,6.70
2019-01-04T17:47:54.669Z,6.70
2019-01-04T17:50:25.921Z,7.27
2019-01-04T17:52:57.220Z,6.07
2019-01-04T17:55:28.406Z,6.63
2019-01-04T17:57:59.694Z,6.93
2019-01-04T18:00:31.475Z,6.43
2019-01-04T18:03:02.702Z,7.10
2019-01-04T18:05:33.984Z,6.80
2019-01-04T18:08:06.583Z,6.23
2019-01-04T18:10:37.846Z,6.07
2019-01-04T18:13:09.140Z,5.80
2019-01-04T18:15:41.437Z,5.80
2019-01-04T18:18:12.824Z,6.80
2019-01-04T18:20:44.191Z,5.60
2019-01-04T18:23:15.521Z,6.50
2019-01-04T18:25:47.749Z,6.30
2019-01-04T18:28:19.002Z,6.37
2019-01-04T18:30:50.294Z,6.13
2019-01-04T18:33:21.553Z,6.13
2019-01-04T18:35:53.727Z,6.20
2019-01-04T18:38:24.988Z,6.90
2019-01-04T18:40:56.262Z,5.93
2019-01-04T18:43:27.853Z,6.27
2019-01-04T18:45:59.059Z,7.37
2019-01-04T18:48:30.473Z,6.30
2019-01-04T18:51:01.704Z,6.67
2019-01-04T18:53:32.937Z,6.23
2019-01-04T18:56:04.184Z,6.90
2019-01-04T18:58:35.643Z,7.83
2019-01-04T19:01:06.875Z,7.83
2019-01-04T19:03:38.122Z,7.30
2019-01-04T19:06:10.389Z,7.77
2019-01-04T19:08:42.225Z,8.47
2019-01-04T19:11:13.429Z,8.03
2019-01-04T19:13:44.734Z,8.10
2019-01-04T19:16:15.968Z,7.90
2019-01-04T19:18:47.184Z,7.00
2019-01-04T19:21:18.454Z,7.00
2019-01-04T19:23:49.743Z,7.07
2019-01-04T19:26:22.259Z,7.33
2019-01-04T19:28:53.523Z,6.83
2019-01-04T19:31:24.816Z,6.80
2019-01-04T19:33:56.034Z,6.60
2019-01-04T19:36:27.365Z,7.00
2019-01-04T19:38:58.624Z,6.27
2019-01-04T19:41:29.823Z,6.43
2019-01-04T19:44:02.124Z,6.47
2019-01-04T19:46:33.343Z,6.07
2019-01-04T19:49:04.791Z,6.27
2019-01-04T19:51:36.219Z,6.23
2019-01-04T19:54:07.710Z,6.00
2019-01-04T19:56:38.973Z,6.20
2019-01-04T19:59:10.331Z,5.77
2019-01-04T20:01:41.537Z,6.13
2019-01-04T20:04:12.834Z,5.60
2019-01-04T20:07:42.113Z,6.00
2019-01-04T20:11:42.453Z,5.60
2019-01-04T20:15:18.864Z,6.07
2019-01-04T20:18:24.131Z,5.60
2019-01-04T20:21:13.309Z,5.17
2019-01-04T20:24:06.696Z,5.87
2019-01-04T20:26:59.927Z,6.20
2019-01-04T20:29:49.082Z,5.70
2019-01-04T20:32:39.329Z,5.73
2019-01-04T20:35:38.836Z,5.73
2019-01-04T20:38:37.850Z,5.60
2019-01-04T20:41:37.029Z,5.70
2019-01-04T20:44:20.031Z,6.03
2019-01-04T20:47:16.294Z,5.77
2019-01-04T20:50:02.393Z,5.60
2019-01-04T20:53:10.907Z,5.80
2019-01-04T20:55:59.698Z,5.20
2019-01-04T20:58:43.830Z,5.90
2019-01-04T21:01:34.001Z,5.63
2019-01-04T21:04:27.308Z,6.27
2019-01-04T21:07:23.505Z,6.17
2019-01-04T21:10:22.592Z,5.53
2019-01-04T21:13:03.607Z,5.50
2019-01-04T21:16:00.003Z,5.83
2019-01-04T21:18:59.412Z,5.50
2019-01-04T21:21:49.267Z,5.93
2019-01-04T21:24:37.996Z,5.57
2019-01-04T21:27:19.296Z,5.77
2019-01-04T21:30:09.502Z,6.03
2019-01-04T21:33:12.190Z,5.60
2019-01-04T21:36:12.382Z,5.37
2019-01-04T21:39:01.848Z,5.10
2019-01-04T21:42:00.079Z,5.40
2019-01-04T21:44:53.065Z,5.90
2019-01-04T21:47:42.186Z,5.33
2019-01-04T21:50:51.800Z,5.93
2019-01-04T21:53:49.525Z,5.77
2019-01-04T21:56:48.751Z,6.07
2019-01-04T21:59:44.842Z,6.03
2019-01-04T22:02:43.925Z,5.30
2019-01-04T22:05:46.403Z,5.17
2019-01-04T22:08:35.259Z,5.30
2019-01-04T22:11:24.107Z,5.23
2019-01-04T22:14:17.031Z,5.53
2019-01-04T22:17:05.938Z,5.43
2019-01-04T22:19:56.100Z,5.57
2019-01-04T22:22:49.192Z,5.83
2019-01-04T22:25:42.968Z,6.00
2019-01-04T22:28:32.229Z,5.50
2019-01-04T22:31:34.538Z,5.27
2019-01-04T22:34:37.383Z,5.03
2019-01-04T22:37:36.861Z,5.27
2019-01-04T22:40:33.355Z,5.40
2019-01-04T22:43:26.510Z,4.47
2019-01-04T22:46:15.713Z,5.33
2019-01-04T22:49:09.171Z,5.00
2019-01-04T22:52:03.418Z,4.80
2019-01-04T22:54:52.271Z,4.83
2019-01-04T22:57:37.173Z,4.20
2019-01-04T23:00:34.055Z,4.37
2019-01-04T23:03:23.658Z,4.80
2019-01-04T23:06:23.184Z,4.57
2019-01-04T23:09:28.099Z,5.03
2019-01-04T23:12:16.935Z,4.70
2019-01-04T23:15:06.123Z,4.53
2019-01-04T23:18:00.209Z,5.07
2019-01-04T23:20:53.476Z,4.47
2019-01-04T23:23:34.159Z,4.60
2019-01-04T23:26:22.986Z,5.30
2019-01-04T23:29:12.889Z,4.73
2019-01-04T23:32:02.241Z,4.67
2019-01-04T23:34:51.288Z,4.07
2019-01-04T23:37:41.422Z,4.73
2019-01-04T23:40:43.641Z,4.10
2019-01-04T23:43:49.118Z,4.70
2019-01-04T23:46:37.578Z,4.20
2019-01-04T23:49:46.114Z,4.53
2019-01-04T23:52:39.325Z,4.60
2019-01-04T23:55:33.315Z,4.30
2019-01-04T23:58:26.690Z,4.20
